sensor_id;sensor_type;location;lat;lon;timestamp;pressure;altitude;pressure_sealevel;temperature;humidity
70103;BME280;57470;50.034;15.256;2023-07-13T00:01:26;98975.75;;;22.37;87.54
70103;BME280;57470;50.034;15.256;2023-07-13T00:03:51;98987.53;;;22.30;87.11
70103;BME280;57470;50.034;15.256;2023-07-13T00:06:17;98998.31;;;22.23;87.37
70103;BME280;57470;50.034;15.256;2023-07-13T00:08:43;99001.88;;;22.24;87.75
70103;BME280;57470;50.034;15.256;2023-07-13T00:11:08;98989.69;;;21.98;88.06
70103;BME280;57470;50.034;15.256;2023-07-13T00:13:35;98988.84;;;21.98;88.47
70103;BME280;57470;50.034;15.256;2023-07-13T00:16:03;98982.22;;;22.00;88.63
70103;BME280;57470;50.034;15.256;2023-07-13T00:18:28;98982.41;;;21.99;88.16
70103;BME280;57470;50.034;15.256;2023-07-13T00:20:55;98981.28;;;21.79;88.71
70103;BME280;57470;50.034;15.256;2023-07-13T00:23:21;98984.66;;;21.81;88.48
70103;BME280;57470;50.034;15.256;2023-07-13T00:25:46;98978.09;;;21.90;88.02
70103;BME280;57470;50.034;15.256;2023-07-13T00:28:12;98976.34;;;21.82;88.11
70103;BME280;57470;50.034;15.256;2023-07-13T00:30:37;98978.56;;;21.79;88.90
70103;BME280;57470;50.034;15.256;2023-07-13T00:33:03;98977.81;;;21.85;89.75
70103;BME280;57470;50.034;15.256;2023-07-13T00:35:30;98972.88;;;21.88;89.44
70103;BME280;57470;50.034;15.256;2023-07-13T00:37:56;98968.94;;;21.91;89.04
70103;BME280;57470;50.034;15.256;2023-07-13T00:40:21;98971.66;;;21.91;89.77
70103;BME280;57470;50.034;15.256;2023-07-13T00:42:46;98965.13;;;22.00;89.18
70103;BME280;57470;50.034;15.256;2023-07-13T00:47:38;98963.53;;;22.05;88.91
70103;BME280;57470;50.034;15.256;2023-07-13T00:50:10;98956.16;;;21.99;89.33
70103;BME280;57470;50.034;15.256;2023-07-13T00:52:42;98949.97;;;22.05;89.73
70103;BME280;57470;50.034;15.256;2023-07-13T00:55:11;98941.19;;;22.03;89.28
70103;BME280;57470;50.034;15.256;2023-07-13T00:57:37;98935.50;;;21.84;91.02
70103;BME280;57470;50.034;15.256;2023-07-13T01:00:05;98938.03;;;21.85;90.68
70103;BME280;57470;50.034;15.256;2023-07-13T01:02:32;98930.38;;;21.89;90.50
70103;BME280;57470;50.034;15.256;2023-07-13T01:04:58;98924.19;;;21.95;90.60
70103;BME280;57470;50.034;15.256;2023-07-13T01:07:23;98929.63;;;21.44;93.85
70103;BME280;57470;50.034;15.256;2023-07-13T01:09:49;98928.75;;;21.73;92.39
70103;BME280;57470;50.034;15.256;2023-07-13T01:12:14;98923.53;;;21.93;90.69
70103;BME280;57470;50.034;15.256;2023-07-13T01:14:40;98927.09;;;21.93;90.75
70103;BME280;57470;50.034;15.256;2023-07-13T01:17:09;98923.94;;;21.90;90.98
70103;BME280;57470;50.034;15.256;2023-07-13T01:19:38;98936.56;;;21.97;90.63
70103;BME280;57470;50.034;15.256;2023-07-13T01:22:30;98931.22;;;21.89;90.38
70103;BME280;57470;50.034;15.256;2023-07-13T01:24:57;98926.56;;;21.98;90.38
70103;BME280;57470;50.034;15.256;2023-07-13T01:27:25;98921.31;;;21.96;90.54
70103;BME280;57470;50.034;15.256;2023-07-13T01:29:53;98913.69;;;22.00;90.50
70103;BME280;57470;50.034;15.256;2023-07-13T01:32:27;98902.25;;;22.04;90.13
70103;BME280;57470;50.034;15.256;2023-07-13T01:34:53;98906.00;;;22.03;90.00
70103;BME280;57470;50.034;15.256;2023-07-13T01:37:20;98894.72;;;22.00;90.18
70103;BME280;57470;50.034;15.256;2023-07-13T01:39:46;98893.22;;;21.97;90.13
70103;BME280;57470;50.034;15.256;2023-07-13T01:42:12;98888.34;;;21.93;90.27
70103;BME280;57470;50.034;15.256;2023-07-13T01:44:38;98887.84;;;21.83;90.61
70103;BME280;57470;50.034;15.256;2023-07-13T01:47:03;98890.81;;;21.88;90.19
70103;BME280;57470;50.034;15.256;2023-07-13T01:49:29;98886.34;;;21.80;90.50
70103;BME280;57470;50.034;15.256;2023-07-13T01:51:54;98889.72;;;21.67;91.22
70103;BME280;57470;50.034;15.256;2023-07-13T01:54:20;98880.69;;;21.60;91.22
70103;BME280;57470;50.034;15.256;2023-07-13T01:56:45;98895.44;;;21.58;91.76
70103;BME280;57470;50.034;15.256;2023-07-13T01:59:10;98885.72;;;21.63;91.42
70103;BME280;57470;50.034;15.256;2023-07-13T02:01:36;98894.22;;;21.60;91.09
70103;BME280;57470;50.034;15.256;2023-07-13T02:04:02;98892.25;;;21.69;91.23
70103;BME280;57470;50.034;15.256;2023-07-13T02:06:27;98898.69;;;21.68;91.36
70103;BME280;57470;50.034;15.256;2023-07-13T02:08:53;98892.00;;;21.64;90.83
70103;BME280;57470;50.034;15.256;2023-07-13T02:11:18;98892.28;;;21.54;90.92
70103;BME280;57470;50.034;15.256;2023-07-13T02:13:44;98896.66;;;21.55;90.71
70103;BME280;57470;50.034;15.256;2023-07-13T02:16:09;98896.38;;;21.50;91.33
70103;BME280;57470;50.034;15.256;2023-07-13T02:18:34;98906.56;;;21.48;91.72
70103;BME280;57470;50.034;15.256;2023-07-13T02:21:00;98903.72;;;21.56;91.01
70103;BME280;57470;50.034;15.256;2023-07-13T02:23:25;98912.50;;;21.58;91.10
70103;BME280;57470;50.034;15.256;2023-07-13T02:25:58;98908.97;;;21.58;91.38
70103;BME280;57470;50.034;15.256;2023-07-13T02:28:24;98908.41;;;21.62;91.03
70103;BME280;57470;50.034;15.256;2023-07-13T02:30:50;98905.22;;;21.59;91.25
70103;BME280;57470;50.034;15.256;2023-07-13T02:33:16;98903.66;;;21.64;91.52
70103;BME280;57470;50.034;15.256;2023-07-13T02:35:41;98911.78;;;21.64;91.35
70103;BME280;57470;50.034;15.256;2023-07-13T02:38:06;98909.69;;;21.66;91.54
70103;BME280;57470;50.034;15.256;2023-07-13T02:40:32;98909.50;;;21.68;91.38
70103;BME280;57470;50.034;15.256;2023-07-13T02:43:01;98921.47;;;21.74;90.88
70103;BME280;57470;50.034;15.256;2023-07-13T02:45:27;98916.25;;;21.57;92.66
70103;BME280;57470;50.034;15.256;2023-07-13T02:47:54;98916.34;;;21.64;93.07
70103;BME280;57470;50.034;15.256;2023-07-13T02:50:19;98914.63;;;21.78;91.67
70103;BME280;57470;50.034;15.256;2023-07-13T02:52:45;98918.13;;;21.93;91.58
70103;BME280;57470;50.034;15.256;2023-07-13T02:55:11;98919.94;;;22.00;90.14
70103;BME280;57470;50.034;15.256;2023-07-13T02:57:37;98924.00;;;21.96;91.17
70103;BME280;57470;50.034;15.256;2023-07-13T03:00:03;98923.38;;;22.09;90.30
70103;BME280;57470;50.034;15.256;2023-07-13T03:02:33;98927.72;;;22.10;90.06
70103;BME280;57470;50.034;15.256;2023-07-13T03:04:59;98937.28;;;22.06;89.93
70103;BME280;57470;50.034;15.256;2023-07-13T03:07:25;98932.13;;;22.11;90.59
70103;BME280;57470;50.034;15.256;2023-07-13T03:09:55;98940.97;;;22.20;89.97
70103;BME280;57470;50.034;15.256;2023-07-13T03:12:21;98936.31;;;22.14;90.90
70103;BME280;57470;50.034;15.256;2023-07-13T03:14:46;98937.50;;;22.26;89.99
70103;BME280;57470;50.034;15.256;2023-07-13T03:17:12;98926.84;;;22.24;89.72
70103;BME280;57470;50.034;15.256;2023-07-13T03:19:37;98925.88;;;22.32;89.60
70103;BME280;57470;50.034;15.256;2023-07-13T03:22:03;98936.00;;;22.23;90.58
70103;BME280;57470;50.034;15.256;2023-07-13T03:24:28;98937.31;;;22.27;90.32
70103;BME280;57470;50.034;15.256;2023-07-13T03:26:54;98940.41;;;22.24;90.29
70103;BME280;57470;50.034;15.256;2023-07-13T03:29:19;98940.66;;;22.29;89.93
70103;BME280;57470;50.034;15.256;2023-07-13T03:31:44;98940.94;;;22.34;90.04
70103;BME280;57470;50.034;15.256;2023-07-13T03:34:10;98947.38;;;22.33;90.37
70103;BME280;57470;50.034;15.256;2023-07-13T03:36:35;98954.00;;;22.31;90.58
70103;BME280;57470;50.034;15.256;2023-07-13T03:39:02;98950.31;;;22.38;90.25
70103;BME280;57470;50.034;15.256;2023-07-13T03:41:28;98945.69;;;22.32;90.21
70103;BME280;57470;50.034;15.256;2023-07-13T03:43:53;98946.91;;;22.30;90.33
70103;BME280;57470;50.034;15.256;2023-07-13T03:46:19;98949.31;;;22.18;90.81
70103;BME280;57470;50.034;15.256;2023-07-13T03:48:46;98965.81;;;22.23;90.78
70103;BME280;57470;50.034;15.256;2023-07-13T03:51:14;98957.84;;;22.36;89.82
70103;BME280;57470;50.034;15.256;2023-07-13T03:53:44;98959.84;;;22.28;89.96
70103;BME280;57470;50.034;15.256;2023-07-13T03:56:10;98961.16;;;22.38;89.41
70103;BME280;57470;50.034;15.256;2023-07-13T03:58:38;98969.41;;;22.30;89.95
70103;BME280;57470;50.034;15.256;2023-07-13T04:01:05;98970.53;;;22.36;89.59
70103;BME280;57470;50.034;15.256;2023-07-13T04:03:31;98969.41;;;22.30;90.00
70103;BME280;57470;50.034;15.256;2023-07-13T04:05:58;98973.44;;;22.34;89.38
70103;BME280;57470;50.034;15.256;2023-07-13T04:08:36;98974.28;;;22.35;89.84
70103;BME280;57470;50.034;15.256;2023-07-13T04:11:02;98984.84;;;22.30;89.92
70103;BME280;57470;50.034;15.256;2023-07-13T04:13:28;98990.72;;;22.33;89.64
70103;BME280;57470;50.034;15.256;2023-07-13T04:15:54;98986.47;;;22.24;90.16
70103;BME280;57470;50.034;15.256;2023-07-13T04:18:20;99009.75;;;22.19;90.31
70103;BME280;57470;50.034;15.256;2023-07-13T04:20:46;99005.84;;;22.06;91.00
70103;BME280;57470;50.034;15.256;2023-07-13T04:23:13;99015.41;;;22.24;90.21
70103;BME280;57470;50.034;15.256;2023-07-13T04:25:38;99004.69;;;22.16;90.17
70103;BME280;57470;50.034;15.256;2023-07-13T04:28:04;99008.19;;;22.31;90.10
70103;BME280;57470;50.034;15.256;2023-07-13T04:30:30;98997.44;;;22.37;89.29
70103;BME280;57470;50.034;15.256;2023-07-13T04:32:56;98988.78;;;22.27;89.92
70103;BME280;57470;50.034;15.256;2023-07-13T04:35:22;98992.41;;;22.34;89.79
70103;BME280;57470;50.034;15.256;2023-07-13T04:37:49;98997.28;;;22.24;89.90
70103;BME280;57470;50.034;15.256;2023-07-13T04:40:16;98991.25;;;22.43;89.53
70103;BME280;57470;50.034;15.256;2023-07-13T04:42:42;98987.63;;;22.58;88.92
70103;BME280;57470;50.034;15.256;2023-07-13T04:45:07;99001.25;;;22.43;89.63
70103;BME280;57470;50.034;15.256;2023-07-13T04:47:33;99001.03;;;22.23;90.46
70103;BME280;57470;50.034;15.256;2023-07-13T04:49:58;98997.22;;;22.18;91.27
70103;BME280;57470;50.034;15.256;2023-07-13T04:52:24;98994.00;;;22.29;90.40
70103;BME280;57470;50.034;15.256;2023-07-13T04:54:50;99002.06;;;22.22;88.24
70103;BME280;57470;50.034;15.256;2023-07-13T04:57:15;99003.91;;;22.22;87.66
70103;BME280;57470;50.034;15.256;2023-07-13T04:59:41;99007.28;;;22.24;86.19
70103;BME280;57470;50.034;15.256;2023-07-13T05:02:06;99006.97;;;22.33;85.52
70103;BME280;57470;50.034;15.256;2023-07-13T05:04:31;99011.31;;;22.13;83.92
70103;BME280;57470;50.034;15.256;2023-07-13T05:06:59;99014.63;;;22.08;81.69
70103;BME280;57470;50.034;15.256;2023-07-13T05:09:25;99015.63;;;21.78;81.69
70103;BME280;57470;50.034;15.256;2023-07-13T05:11:50;99014.13;;;21.76;81.38
70103;BME280;57470;50.034;15.256;2023-07-13T05:14:15;99018.06;;;21.88;80.42
70103;BME280;57470;50.034;15.256;2023-07-13T05:16:42;99026.94;;;21.82;80.59
70103;BME280;57470;50.034;15.256;2023-07-13T05:19:08;99034.91;;;21.98;80.40
70103;BME280;57470;50.034;15.256;2023-07-13T05:21:33;99039.72;;;21.88;80.69
70103;BME280;57470;50.034;15.256;2023-07-13T05:23:58;99039.25;;;22.14;80.31
70103;BME280;57470;50.034;15.256;2023-07-13T05:26:24;99038.53;;;22.05;79.50
70103;BME280;57470;50.034;15.256;2023-07-13T05:28:49;99041.31;;;22.12;78.75
70103;BME280;57470;50.034;15.256;2023-07-13T05:31:15;99043.38;;;22.10;79.16
70103;BME280;57470;50.034;15.256;2023-07-13T05:33:40;99039.97;;;22.22;78.21
70103;BME280;57470;50.034;15.256;2023-07-13T05:36:06;99037.63;;;22.34;77.70
70103;BME280;57470;50.034;15.256;2023-07-13T05:38:32;99038.50;;;22.56;77.20
70103;BME280;57470;50.034;15.256;2023-07-13T05:40:58;99043.41;;;22.45;76.82
70103;BME280;57470;50.034;15.256;2023-07-13T05:43:24;99039.84;;;22.66;77.07
70103;BME280;57470;50.034;15.256;2023-07-13T05:45:52;99050.03;;;22.43;77.03
70103;BME280;57470;50.034;15.256;2023-07-13T05:48:18;99048.06;;;22.52;76.18
70103;BME280;57470;50.034;15.256;2023-07-13T05:50:43;99043.22;;;22.68;76.22
70103;BME280;57470;50.034;15.256;2023-07-13T05:53:09;99050.09;;;22.50;77.20
70103;BME280;57470;50.034;15.256;2023-07-13T05:55:34;99056.84;;;22.54;76.81
70103;BME280;57470;50.034;15.256;2023-07-13T05:58:00;99061.44;;;22.74;76.51
70103;BME280;57470;50.034;15.256;2023-07-13T06:00:26;99070.81;;;22.72;76.28
70103;BME280;57470;50.034;15.256;2023-07-13T06:02:52;99059.44;;;22.83;75.89
70103;BME280;57470;50.034;15.256;2023-07-13T06:05:17;99066.94;;;23.02;75.51
70103;BME280;57470;50.034;15.256;2023-07-13T06:07:43;99071.47;;;22.95;76.03
70103;BME280;57470;50.034;15.256;2023-07-13T06:10:08;99072.09;;;23.18;75.69
70103;BME280;57470;50.034;15.256;2023-07-13T06:12:34;99068.16;;;23.00;75.65
70103;BME280;57470;50.034;15.256;2023-07-13T06:14:59;99082.94;;;22.76;75.92
70103;BME280;57470;50.034;15.256;2023-07-13T06:17:25;99097.03;;;22.86;76.23
70103;BME280;57470;50.034;15.256;2023-07-13T06:19:50;99096.09;;;23.15;75.02
70103;BME280;57470;50.034;15.256;2023-07-13T06:22:15;99104.31;;;23.28;74.80
70103;BME280;57470;50.034;15.256;2023-07-13T06:24:41;99102.25;;;23.30;74.83
70103;BME280;57470;50.034;15.256;2023-07-13T06:27:06;99118.38;;;22.89;74.13
70103;BME280;57470;50.034;15.256;2023-07-13T06:29:31;99114.94;;;22.80;74.67
70103;BME280;57470;50.034;15.256;2023-07-13T06:31:57;99116.75;;;22.95;74.90
70103;BME280;57470;50.034;15.256;2023-07-13T06:34:22;99117.25;;;22.83;74.03
70103;BME280;57470;50.034;15.256;2023-07-13T06:36:48;99117.84;;;23.00;74.00
70103;BME280;57470;50.034;15.256;2023-07-13T06:39:14;99119.13;;;23.04;74.16
70103;BME280;57470;50.034;15.256;2023-07-13T06:41:39;99121.97;;;22.96;74.02
70103;BME280;57470;50.034;15.256;2023-07-13T06:44:05;99125.34;;;22.98;74.09
70103;BME280;57470;50.034;15.256;2023-07-13T06:46:32;99117.72;;;23.30;73.26
70103;BME280;57470;50.034;15.256;2023-07-13T06:48:57;99125.00;;;23.29;72.85
70103;BME280;57470;50.034;15.256;2023-07-13T06:51:23;99129.66;;;23.14;73.19
70103;BME280;57470;50.034;15.256;2023-07-13T06:53:48;99124.69;;;23.17;73.40
70103;BME280;57470;50.034;15.256;2023-07-13T06:56:15;99132.16;;;23.37;72.89
70103;BME280;57470;50.034;15.256;2023-07-13T06:58:40;99132.28;;;23.71;71.91
70103;BME280;57470;50.034;15.256;2023-07-13T07:01:06;99128.94;;;23.48;72.17
70103;BME280;57470;50.034;15.256;2023-07-13T07:03:31;99129.84;;;23.55;72.73
70103;BME280;57470;50.034;15.256;2023-07-13T07:06:18;99130.22;;;23.73;72.68
70103;BME280;57470;50.034;15.256;2023-07-13T07:08:43;99135.41;;;23.96;72.24
70103;BME280;57470;50.034;15.256;2023-07-13T07:11:19;99143.59;;;24.03;71.82
70103;BME280;57470;50.034;15.256;2023-07-13T07:13:44;99142.56;;;24.04;71.54
70103;BME280;57470;50.034;15.256;2023-07-13T07:16:10;99135.88;;;24.06;70.92
70103;BME280;57470;50.034;15.256;2023-07-13T07:18:36;99138.53;;;24.27;70.89
70103;BME280;57470;50.034;15.256;2023-07-13T07:21:02;99142.38;;;24.46;70.85
70103;BME280;57470;50.034;15.256;2023-07-13T07:23:27;99142.41;;;24.53;70.93
70103;BME280;57470;50.034;15.256;2023-07-13T07:25:53;99136.84;;;24.74;70.08
70103;BME280;57470;50.034;15.256;2023-07-13T07:28:18;99139.13;;;24.64;70.46
70103;BME280;57470;50.034;15.256;2023-07-13T07:30:47;99144.63;;;24.77;69.54
70103;BME280;57470;50.034;15.256;2023-07-13T07:33:14;99144.28;;;25.00;69.98
70103;BME280;57470;50.034;15.256;2023-07-13T07:35:39;99134.16;;;24.74;69.81
70103;BME280;57470;50.034;15.256;2023-07-13T07:38:05;99137.53;;;24.89;69.67
70103;BME280;57470;50.034;15.256;2023-07-13T07:40:31;99133.47;;;24.59;69.58
70103;BME280;57470;50.034;15.256;2023-07-13T07:42:57;99136.19;;;24.65;69.92
70103;BME280;57470;50.034;15.256;2023-07-13T07:45:22;99140.25;;;24.35;71.94
70103;BME280;57470;50.034;15.256;2023-07-13T07:47:48;99145.38;;;24.58;71.38
70103;BME280;57470;50.034;15.256;2023-07-13T07:50:14;99160.63;;;25.00;70.02
70103;BME280;57470;50.034;15.256;2023-07-13T07:52:39;99157.06;;;25.06;69.96
70103;BME280;57470;50.034;15.256;2023-07-13T07:55:06;99164.41;;;25.05;69.97
70103;BME280;57470;50.034;15.256;2023-07-13T07:57:32;99159.44;;;25.22;70.57
70103;BME280;57470;50.034;15.256;2023-07-13T07:59:58;99162.41;;;25.60;68.40
70103;BME280;57470;50.034;15.256;2023-07-13T08:02:24;99161.56;;;25.47;68.84
70103;BME280;57470;50.034;15.256;2023-07-13T08:04:49;99154.41;;;25.52;67.59
70103;BME280;57470;50.034;15.256;2023-07-13T08:07:15;99156.03;;;25.00;69.26
70103;BME280;57470;50.034;15.256;2023-07-13T08:09:40;99161.16;;;25.50;67.99
70103;BME280;57470;50.034;15.256;2023-07-13T08:12:06;99154.25;;;25.60;67.48
70103;BME280;57470;50.034;15.256;2023-07-13T08:14:31;99161.16;;;25.63;67.90
70103;BME280;57470;50.034;15.256;2023-07-13T08:16:56;99161.94;;;25.43;66.18
70103;BME280;57470;50.034;15.256;2023-07-13T08:19:22;99155.06;;;25.48;67.65
70103;BME280;57470;50.034;15.256;2023-07-13T08:21:47;99168.47;;;25.95;66.34
70103;BME280;57470;50.034;15.256;2023-07-13T08:24:14;99163.88;;;25.89;64.41
70103;BME280;57470;50.034;15.256;2023-07-13T08:26:39;99161.59;;;25.93;63.89
70103;BME280;57470;50.034;15.256;2023-07-13T08:29:05;99160.53;;;25.94;63.54
70103;BME280;57470;50.034;15.256;2023-07-13T08:31:30;99156.13;;;25.86;63.73
70103;BME280;57470;50.034;15.256;2023-07-13T08:33:55;99160.91;;;26.37;63.21
70103;BME280;57470;50.034;15.256;2023-07-13T08:36:21;99155.34;;;26.63;61.89
70103;BME280;57470;50.034;15.256;2023-07-13T08:38:46;99165.47;;;26.56;62.15
70103;BME280;57470;50.034;15.256;2023-07-13T08:41:14;99159.75;;;26.58;60.75
70103;BME280;57470;50.034;15.256;2023-07-13T08:43:41;99161.06;;;26.48;61.44
70103;BME280;57470;50.034;15.256;2023-07-13T08:46:28;99157.97;;;26.19;62.12
70103;BME280;57470;50.034;15.256;2023-07-13T08:48:58;99160.69;;;26.32;63.48
70103;BME280;57470;50.034;15.256;2023-07-13T08:51:49;99172.88;;;26.09;60.22
70103;BME280;57470;50.034;15.256;2023-07-13T08:54:37;99172.03;;;26.15;61.18
70103;BME280;57470;50.034;15.256;2023-07-13T08:57:13;99167.41;;;26.36;59.43
70103;BME280;57470;50.034;15.256;2023-07-13T08:59:38;99181.69;;;26.05;60.83
70103;BME280;57470;50.034;15.256;2023-07-13T09:02:26;99171.81;;;26.37;60.04
70103;BME280;57470;50.034;15.256;2023-07-13T09:05:02;99174.44;;;26.63;60.18
70103;BME280;57470;50.034;15.256;2023-07-13T09:07:58;99180.81;;;26.44;60.31
70103;BME280;57470;50.034;15.256;2023-07-13T09:10:32;99169.09;;;26.30;60.75
70103;BME280;57470;50.034;15.256;2023-07-13T09:15:32;99182.75;;;26.10;61.85
70103;BME280;57470;50.034;15.256;2023-07-13T09:18:35;99190.88;;;26.43;60.69
70103;BME280;57470;50.034;15.256;2023-07-13T09:21:14;99196.94;;;26.52;60.30
70103;BME280;57470;50.034;15.256;2023-07-13T09:23:41;99190.25;;;26.48;61.31
70103;BME280;57470;50.034;15.256;2023-07-13T09:26:14;99203.16;;;26.72;61.13
70103;BME280;57470;50.034;15.256;2023-07-13T09:28:43;99191.59;;;26.83;61.86
70103;BME280;57470;50.034;15.256;2023-07-13T09:31:28;99197.13;;;26.64;61.06
70103;BME280;57470;50.034;15.256;2023-07-13T09:33:59;99194.41;;;26.50;61.22
70103;BME280;57470;50.034;15.256;2023-07-13T09:36:28;99191.72;;;26.44;60.94
70103;BME280;57470;50.034;15.256;2023-07-13T09:41:57;99195.78;;;26.79;60.08
70103;BME280;57470;50.034;15.256;2023-07-13T09:44:34;99197.97;;;26.51;60.46
70103;BME280;57470;50.034;15.256;2023-07-13T09:47:01;99202.78;;;26.62;59.96
70103;BME280;57470;50.034;15.256;2023-07-13T09:49:35;99205.63;;;26.87;58.39
70103;BME280;57470;50.034;15.256;2023-07-13T09:52:06;99202.25;;;26.98;58.45
70103;BME280;57470;50.034;15.256;2023-07-13T09:54:36;99209.94;;;27.14;58.25
70103;BME280;57470;50.034;15.256;2023-07-13T09:57:03;99224.72;;;26.94;58.66
70103;BME280;57470;50.034;15.256;2023-07-13T09:59:32;99215.94;;;26.78;58.95
70103;BME280;57470;50.034;15.256;2023-07-13T10:01:58;99226.41;;;26.95;58.29
70103;BME280;57470;50.034;15.256;2023-07-13T10:04:32;99218.50;;;26.67;58.16
70103;BME280;57470;50.034;15.256;2023-07-13T10:07:11;99217.63;;;26.93;57.79
70103;BME280;57470;50.034;15.256;2023-07-13T10:09:38;99220.66;;;27.16;57.19
70103;BME280;57470;50.034;15.256;2023-07-13T10:12:04;99222.59;;;27.40;58.26
70103;BME280;57470;50.034;15.256;2023-07-13T10:14:38;99223.69;;;27.71;56.26
70103;BME280;57470;50.034;15.256;2023-07-13T10:17:08;99219.13;;;27.65;56.37
70103;BME280;57470;50.034;15.256;2023-07-13T10:19:35;99216.69;;;27.05;59.29
70103;BME280;57470;50.034;15.256;2023-07-13T10:24:46;99216.06;;;27.03;56.11
70103;BME280;57470;50.034;15.256;2023-07-13T10:29:41;99214.44;;;27.34;55.46
70103;BME280;57470;50.034;15.256;2023-07-13T10:32:11;99218.75;;;27.48;56.04
70103;BME280;57470;50.034;15.256;2023-07-13T10:34:37;99219.91;;;27.96;56.21
70103;BME280;57470;50.034;15.256;2023-07-13T10:37:05;99230.16;;;28.01;54.55
70103;BME280;57470;50.034;15.256;2023-07-13T10:39:32;99222.72;;;27.58;53.72
70103;BME280;57470;50.034;15.256;2023-07-13T10:42:05;99225.09;;;27.80;54.11
70103;BME280;57470;50.034;15.256;2023-07-13T10:44:32;99226.56;;;27.82;53.81
70103;BME280;57470;50.034;15.256;2023-07-13T10:47:01;99228.63;;;27.49;53.75
70103;BME280;57470;50.034;15.256;2023-07-13T10:49:29;99229.13;;;27.39;53.70
70103;BME280;57470;50.034;15.256;2023-07-13T10:51:56;99235.44;;;27.02;53.82
70103;BME280;57470;50.034;15.256;2023-07-13T10:54:32;99226.78;;;27.43;54.00
70103;BME280;57470;50.034;15.256;2023-07-13T10:57:16;99230.84;;;27.72;52.16
70103;BME280;57470;50.034;15.256;2023-07-13T10:59:47;99225.53;;;28.01;52.44
70103;BME280;57470;50.034;15.256;2023-07-13T11:02:27;99230.88;;;28.21;52.11
70103;BME280;57470;50.034;15.256;2023-07-13T11:04:55;99229.63;;;28.42;50.87
70103;BME280;57470;50.034;15.256;2023-07-13T11:07:28;99224.16;;;28.42;50.58
70103;BME280;57470;50.034;15.256;2023-07-13T11:09:56;99223.09;;;28.61;49.55
70103;BME280;57470;50.034;15.256;2023-07-13T11:19:54;99229.72;;;28.54;50.14
70103;BME280;57470;50.034;15.256;2023-07-13T11:22:45;99217.81;;;28.23;50.31
70103;BME280;57470;50.034;15.256;2023-07-13T11:25:31;99221.78;;;28.27;49.96
70103;BME280;57470;50.034;15.256;2023-07-13T11:31:00;99219.25;;;29.05;49.88
70103;BME280;57470;50.034;15.256;2023-07-13T11:33:31;99222.88;;;28.99;48.01
70103;BME280;57470;50.034;15.256;2023-07-13T11:36:15;99219.78;;;28.96;48.00
70103;BME280;57470;50.034;15.256;2023-07-13T11:38:43;99221.75;;;28.70;48.24
70103;BME280;57470;50.034;15.256;2023-07-13T11:41:23;99217.16;;;28.64;48.03
70103;BME280;57470;50.034;15.256;2023-07-13T11:43:52;99216.66;;;28.92;48.02
70103;BME280;57470;50.034;15.256;2023-07-13T11:46:24;99216.75;;;28.86;47.83
70103;BME280;57470;50.034;15.256;2023-07-13T11:48:50;99209.75;;;29.20;47.29
70103;BME280;57470;50.034;15.256;2023-07-13T11:51:28;99200.84;;;28.94;46.89
70103;BME280;57470;50.034;15.256;2023-07-13T11:53:58;99194.19;;;29.02;45.47
70103;BME280;57470;50.034;15.256;2023-07-13T11:56:25;99200.75;;;29.01;46.47
70103;BME280;57470;50.034;15.256;2023-07-13T11:58:52;99204.88;;;29.40;45.29
70103;BME280;57470;50.034;15.256;2023-07-13T12:01:23;99211.81;;;29.54;45.81
70103;BME280;57470;50.034;15.256;2023-07-13T12:03:50;99201.94;;;29.35;45.56
70103;BME280;57470;50.034;15.256;2023-07-13T12:06:31;99210.69;;;29.14;46.15
70103;BME280;57470;50.034;15.256;2023-07-13T12:08:59;99197.88;;;29.56;46.15
70103;BME280;57470;50.034;15.256;2023-07-13T12:11:26;99192.25;;;29.39;46.87
70103;BME280;57470;50.034;15.256;2023-07-13T12:13:51;99206.25;;;29.61;45.92
70103;BME280;57470;50.034;15.256;2023-07-13T12:16:32;99201.81;;;29.30;45.00
70103;BME280;57470;50.034;15.256;2023-07-13T12:19:00;99192.50;;;28.89;45.02
70103;BME280;57470;50.034;15.256;2023-07-13T12:21:34;99196.56;;;29.28;44.38
70103;BME280;57470;50.034;15.256;2023-07-13T12:24:00;99199.16;;;28.93;45.14
70103;BME280;57470;50.034;15.256;2023-07-13T12:26:28;99200.19;;;28.81;44.96
70103;BME280;57470;50.034;15.256;2023-07-13T12:28:55;99198.53;;;28.91;44.63
70103;BME280;57470;50.034;15.256;2023-07-13T12:34:06;99196.94;;;30.15;43.83
70103;BME280;57470;50.034;15.256;2023-07-13T12:36:34;99199.84;;;29.90;43.28
70103;BME280;57470;50.034;15.256;2023-07-13T12:39:06;99197.06;;;30.20;43.00
70103;BME280;57470;50.034;15.256;2023-07-13T12:41:36;99188.00;;;30.31;41.04
70103;BME280;57470;50.034;15.256;2023-07-13T12:44:01;99184.75;;;30.34;41.29
70103;BME280;57470;50.034;15.256;2023-07-13T12:46:27;99180.44;;;30.62;42.17
70103;BME280;57470;50.034;15.256;2023-07-13T12:48:54;99199.22;;;30.41;42.66
70103;BME280;57470;50.034;15.256;2023-07-13T12:51:24;99193.63;;;29.71;41.59
70103;BME280;57470;50.034;15.256;2023-07-13T12:54:11;99201.75;;;29.78;41.89
70103;BME280;57470;50.034;15.256;2023-07-13T12:56:38;99202.44;;;30.15;41.61
70103;BME280;57470;50.034;15.256;2023-07-13T12:59:04;99205.78;;;30.05;40.42
70103;BME280;57470;50.034;15.256;2023-07-13T13:01:34;99204.28;;;29.79;40.94
70103;BME280;57470;50.034;15.256;2023-07-13T13:04:02;99206.72;;;30.11;39.86
70103;BME280;57470;50.034;15.256;2023-07-13T13:06:34;99199.91;;;30.25;39.23
70103;BME280;57470;50.034;15.256;2023-07-13T13:09:01;99199.19;;;30.18;40.77
70103;BME280;57470;50.034;15.256;2023-07-13T13:11:31;99199.44;;;30.05;39.80
70103;BME280;57470;50.034;15.256;2023-07-13T13:13:57;99186.69;;;30.22;39.53
70103;BME280;57470;50.034;15.256;2023-07-13T13:16:29;99193.47;;;31.06;40.92
70103;BME280;57470;50.034;15.256;2023-07-13T13:19:18;99197.66;;;30.97;40.17
70103;BME280;57470;50.034;15.256;2023-07-13T13:21:45;99203.16;;;31.37;40.28